Portada
METAR-TAF:

METAR-TAF

Aeroports :

Kélibia, Tunísia

latitud: 36-51N, longitud: 011-05E, altitud: 29 m

Observació

L'informe es va fer fa 49 minuts, a les 19:00 UTC
Vent 3 kt del Sud-Est, variant entre Est/Nord-Est i Sud
Temperatura 28°C
Humitat 74%
Pressió 1014 hPa
Visibilitat 10 km o més
sense núvols per sota de 1500 mi sense presència de cumulonimbus.

METAR: DTTL 231900Z 13003KT 060V180 CAVOK 28/23 Q1014

Hora: 20:49 (19:49 UTC)


TAF: manca

Observacions i pronòstics meteorològics de més de 4000 aeroports (METAR i TAF).

Les estacions disponibles són els punts grocs i vermells al mapa.

Posi el ratolí al punt desitjat per veure el nom de l'estació.

Feu clic per veure les observacions i els pronòstics meteorològics.

Per canviar el mapa: feu clic els botons verds amb una creu de color negre per apropar; al botó verd amb un guió per allunyar la imatge; o en les fletxes verdes per a mapes adjacents.


METAR-TAF: